createdAt,value
2019-01-18T00:00:01.703Z,97.26
2019-01-18T00:00:27.881Z,97.54
2019-01-18T00:00:53.997Z,97.16
2019-01-18T00:01:20.121Z,97.45
2019-01-18T00:01:46.239Z,97.26
2019-01-18T00:02:12.360Z,97.26
2019-01-18T00:02:38.477Z,97.35
2019-01-18T00:03:04.595Z,97.45
2019-01-18T00:03:30.714Z,97.64
2019-01-18T00:03:56.834Z,97.26
2019-01-18T00:04:22.958Z,96.97
2019-01-18T00:04:49.075Z,97.07
2019-01-18T00:05:15.193Z,97.45
2019-01-18T00:05:41.312Z,97.16
2019-01-18T00:06:07.442Z,97.16
2019-01-18T00:06:33.552Z,97.26
2019-01-18T00:06:59.669Z,97.26
2019-01-18T00:07:25.790Z,96.92
2019-01-18T00:07:51.906Z,96.92
2019-01-18T00:08:18.026Z,97.21
2019-01-18T00:08:44.157Z,97.07
2019-01-18T00:09:10.278Z,96.97
2019-01-18T00:09:36.429Z,97.35
2019-01-18T00:10:02.550Z,97.26
2019-01-18T00:10:28.666Z,96.97
2019-01-18T00:10:54.785Z,97.35
2019-01-18T00:11:20.905Z,97.45
2019-01-18T00:11:47.082Z,97.45
2019-01-18T00:12:13.191Z,96.97
2019-01-18T00:12:39.335Z,96.97
2019-01-18T00:13:05.456Z,97.45
2019-01-18T00:13:31.573Z,97.26
2019-01-18T00:13:57.692Z,96.78
2019-01-18T00:14:23.841Z,96.78
2019-01-18T00:14:49.959Z,96.78
2019-01-18T00:15:16.091Z,96.88
2019-01-18T00:15:42.209Z,96.78
2019-01-18T00:16:08.358Z,96.88
2019-01-18T00:16:34.478Z,96.41
2019-01-18T00:17:00.597Z,96.78
2019-01-18T00:17:26.747Z,96.41
2019-01-18T00:17:52.866Z,96.12
2019-01-18T00:18:18.984Z,96.41
2019-01-18T00:18:45.101Z,96.41
2019-01-18T00:19:11.222Z,96.31
2019-01-18T00:19:37.340Z,96.41
2019-01-18T00:20:03.457Z,96.41
2019-01-18T00:20:29.578Z,96.69
2019-01-18T00:20:55.698Z,96.59
2019-01-18T00:21:21.817Z,96.31
2019-01-18T00:21:47.936Z,96.59
2019-01-18T00:22:14.056Z,96.59
2019-01-18T00:22:40.170Z,96.12
2019-01-18T00:23:06.292Z,96.69
2019-01-18T00:23:32.409Z,96.59
2019-01-18T00:23:58.527Z,96.78
2019-01-18T00:24:24.646Z,96.69
2019-01-18T00:24:50.761Z,96.88
2019-01-18T00:25:16.882Z,96.69
2019-01-18T00:25:43.033Z,96.78
2019-01-18T00:26:09.182Z,96.78
2019-01-18T00:26:35.327Z,96.78
2019-01-18T00:27:01.447Z,96.5
2019-01-18T00:27:27.599Z,96.88
2019-01-18T00:27:53.748Z,96.41
2019-01-18T00:28:19.868Z,96.59
2019-01-18T00:28:45.984Z,96.88
2019-01-18T00:29:12.103Z,96.78
2019-01-18T00:29:39.214Z,96.59
2019-01-18T00:30:05.361Z,96.88
2019-01-18T00:30:31.477Z,96.31
2019-01-18T00:30:57.594Z,96.31
2019-01-18T00:31:23.741Z,96.41
2019-01-18T00:31:49.860Z,96.5
2019-01-18T00:32:16.011Z,96.31
2019-01-18T00:32:42.133Z,96.69
2019-01-18T00:33:08.251Z,96.5
2019-01-18T00:33:34.369Z,96.5
2019-01-18T00:34:00.489Z,96.69
2019-01-18T00:34:26.607Z,96.78
2019-01-18T00:34:52.726Z,96.97
2019-01-18T00:35:18.848Z,96.41
2019-01-18T00:35:44.968Z,96.5
2019-01-18T00:36:11.085Z,96.78
2019-01-18T00:36:37.203Z,96.97
2019-01-18T00:37:03.324Z,96.22
2019-01-18T00:37:29.445Z,96.22
2019-01-18T00:37:55.592Z,96.12
2019-01-18T00:38:21.715Z,96.5
2019-01-18T00:38:47.831Z,96.31
2019-01-18T00:39:13.949Z,96.41
2019-01-18T00:39:40.069Z,96.5
2019-01-18T00:40:06.187Z,96.31
2019-01-18T00:40:32.338Z,96.31
2019-01-18T00:40:58.456Z,96.41
2019-01-18T00:41:24.574Z,96.31
2019-01-18T00:41:50.693Z,96.41
2019-01-18T00:42:16.811Z,96.31
2019-01-18T00:42:42.930Z,96.41
2019-01-18T00:43:09.048Z,96.31
2019-01-18T00:43:35.165Z,96.5
2019-01-18T00:44:01.287Z,96.5
2019-01-18T00:44:27.406Z,96.31
2019-01-18T00:44:53.523Z,96.5
2019-01-18T00:45:19.642Z,96.31
2019-01-18T00:45:45.795Z,96.59
2019-01-18T00:46:11.913Z,95.93
2019-01-18T00:46:38.035Z,96.41
2019-01-18T00:47:04.151Z,96.12
2019-01-18T00:47:30.303Z,96.31
2019-01-18T00:47:56.424Z,95.36
2019-01-18T00:48:22.548Z,95.74
2019-01-18T00:48:48.694Z,95.65
2019-01-18T00:49:14.812Z,95.45
2019-01-18T00:49:40.958Z,95.65
2019-01-18T00:50:07.107Z,96.12
2019-01-18T00:50:33.227Z,95.93
2019-01-18T00:50:59.347Z,96.03
2019-01-18T00:51:25.499Z,95.74
2019-01-18T00:51:51.627Z,95.84
2019-01-18T00:52:17.770Z,95.65
2019-01-18T00:52:43.920Z,95.65
2019-01-18T00:53:10.039Z,95.74
2019-01-18T00:53:36.154Z,95.74
2019-01-18T00:54:02.303Z,95.74
2019-01-18T00:54:28.424Z,95.55
2019-01-18T00:54:54.542Z,95.55
2019-01-18T00:55:20.660Z,95.55
2019-01-18T00:55:46.779Z,95.26
2019-01-18T00:56:12.898Z,95.74
2019-01-18T00:56:39.016Z,95.45
2019-01-18T00:57:05.135Z,95.65
2019-01-18T00:57:31.256Z,95.74
2019-01-18T00:57:57.371Z,95.55
2019-01-18T00:58:23.522Z,95.45
2019-01-18T00:58:49.641Z,95.93
2019-01-18T00:59:15.761Z,95.07
2019-01-18T00:59:42.865Z,95.17
2019-01-18T01:00:09.015Z,94.98
2019-01-18T01:00:35.134Z,94.79
2019-01-18T01:01:01.253Z,94.98
2019-01-18T01:01:27.370Z,95.26
2019-01-18T01:01:53.488Z,94.89
2019-01-18T01:02:19.608Z,95.17
2019-01-18T01:02:45.728Z,94.6
2019-01-18T01:03:11.846Z,94.79
2019-01-18T01:03:37.967Z,94.6
2019-01-18T01:04:04.086Z,94.51
2019-01-18T01:04:30.238Z,93.94
2019-01-18T01:04:56.379Z,94.42
2019-01-18T01:05:22.501Z,94.13
2019-01-18T01:05:48.619Z,94.32
2019-01-18T01:06:14.738Z,94.13
2019-01-18T01:06:40.856Z,94.23
2019-01-18T01:07:06.976Z,94.32
2019-01-18T01:07:33.096Z,94.13
2019-01-18T01:07:59.245Z,94.32
2019-01-18T01:08:25.362Z,93.84
2019-01-18T01:08:51.485Z,93.84
2019-01-18T01:09:17.607Z,93.84
2019-01-18T01:09:43.724Z,94.13
2019-01-18T01:10:09.844Z,93.65
2019-01-18T01:10:36.024Z,93.94
2019-01-18T01:11:02.144Z,93.56
2019-01-18T01:11:28.263Z,93.75
2019-01-18T01:11:54.385Z,93.56
2019-01-18T01:12:20.502Z,93.84
2019-01-18T01:12:46.621Z,93.94
2019-01-18T01:13:12.735Z,93.84
2019-01-18T01:13:38.855Z,93.56
2019-01-18T01:14:04.975Z,93.84
2019-01-18T01:14:31.097Z,93.84
2019-01-18T01:14:57.218Z,93.75
2019-01-18T01:15:23.365Z,93.56
2019-01-18T01:15:49.484Z,93.94
2019-01-18T01:16:15.603Z,93.65
2019-01-18T01:16:41.755Z,93.84
2019-01-18T01:17:07.874Z,93.65
2019-01-18T01:17:33.986Z,94.23
2019-01-18T01:18:00.104Z,94.04
2019-01-18T01:18:26.225Z,93.65
2019-01-18T01:18:52.342Z,93.84
2019-01-18T01:19:18.462Z,94.04
2019-01-18T01:19:44.577Z,93.46
2019-01-18T01:20:10.729Z,93.46
2019-01-18T01:20:36.846Z,93.75
2019-01-18T01:21:02.995Z,93.56
2019-01-18T01:21:29.114Z,93.94
2019-01-18T01:21:55.236Z,93.84
2019-01-18T01:22:21.351Z,93.84
2019-01-18T01:22:47.472Z,93.84
2019-01-18T01:23:13.588Z,93.84
2019-01-18T01:23:39.708Z,93.65
2019-01-18T01:24:05.829Z,93.75
2019-01-18T01:24:31.949Z,93.65
2019-01-18T01:24:58.066Z,93.46
2019-01-18T01:25:24.216Z,93.56
2019-01-18T01:25:50.347Z,93.56
2019-01-18T01:26:16.486Z,93.56
2019-01-18T01:26:42.604Z,93.56
2019-01-18T01:27:08.723Z,93.37
2019-01-18T01:27:34.841Z,93.27
2019-01-18T01:28:00.959Z,93.27
2019-01-18T01:28:27.079Z,93.18
2019-01-18T01:28:53.227Z,93.37
2019-01-18T01:29:19.344Z,93.27
2019-01-18T01:29:45.495Z,92.8
2019-01-18T01:30:11.615Z,92.9
2019-01-18T01:30:37.734Z,92.71
2019-01-18T01:31:03.854Z,92.9
2019-01-18T01:31:30.002Z,92.9
2019-01-18T01:31:56.121Z,93.08
2019-01-18T01:32:22.238Z,92.94
2019-01-18T01:32:48.358Z,92.76
2019-01-18T01:33:14.477Z,92.52
2019-01-18T01:33:40.629Z,92.99
2019-01-18T01:34:06.746Z,92.76
2019-01-18T01:34:32.865Z,92.66
2019-01-18T01:34:58.983Z,92.71
2019-01-18T01:35:25.102Z,92.57
2019-01-18T01:35:51.253Z,92.66
2019-01-18T01:36:17.368Z,92.85
2019-01-18T01:36:43.517Z,92.94
2019-01-18T01:37:09.633Z,92.9
2019-01-18T01:37:35.750Z,92.61
2019-01-18T01:38:01.870Z,92.9
2019-01-18T01:38:27.992Z,92.9
2019-01-18T01:38:54.111Z,92.61
2019-01-18T01:39:20.259Z,92.61
2019-01-18T01:39:46.437Z,93.08
2019-01-18T01:40:12.556Z,92.9
2019-01-18T01:40:38.673Z,93.08
2019-01-18T01:41:04.796Z,92.9
2019-01-18T01:41:30.950Z,92.52
2019-01-18T01:41:57.068Z,92.8
2019-01-18T01:42:23.188Z,92.8
2019-01-18T01:42:49.307Z,92.71
2019-01-18T01:43:15.429Z,92.61
2019-01-18T01:43:41.611Z,92.61
2019-01-18T01:44:07.730Z,92.61
2019-01-18T01:44:33.849Z,92.9
2019-01-18T01:44:59.970Z,92.71
2019-01-18T01:45:26.090Z,92.23
2019-01-18T01:45:52.209Z,92.61
2019-01-18T01:46:18.330Z,92.9
2019-01-18T01:46:44.451Z,92.9
2019-01-18T01:47:10.568Z,92.99
2019-01-18T01:47:36.688Z,92.9
2019-01-18T01:48:02.873Z,93.18
2019-01-18T01:48:28.989Z,93.08
2019-01-18T01:48:55.108Z,92.61
2019-01-18T01:49:21.228Z,92.33
2019-01-18T01:49:47.345Z,92.99
2019-01-18T01:50:13.466Z,92.04
2019-01-18T01:50:39.586Z,93.08
2019-01-18T01:51:05.704Z,93.08
2019-01-18T01:51:31.825Z,93.08
2019-01-18T01:51:57.941Z,93.27
2019-01-18T01:52:24.062Z,93.08
2019-01-18T01:52:50.182Z,92.9
2019-01-18T01:53:16.333Z,93.18
2019-01-18T01:53:42.452Z,93.08
2019-01-18T01:54:08.571Z,93.08
2019-01-18T01:54:34.693Z,93.08
2019-01-18T01:55:00.808Z,93.08
2019-01-18T01:55:26.925Z,93.27
2019-01-18T01:55:53.043Z,92.99
2019-01-18T01:56:19.163Z,93.08
2019-01-18T01:56:45.283Z,93.08
2019-01-18T01:57:11.403Z,92.71
2019-01-18T01:57:37.518Z,93.08
2019-01-18T01:58:03.636Z,93.46
2019-01-18T01:58:29.757Z,93.37
2019-01-18T01:58:55.877Z,93.18
2019-01-18T01:59:21.996Z,93.18
2019-01-18T01:59:49.869Z,93.18
2019-01-18T02:00:15.225Z,93.65
2019-01-18T02:00:41.342Z,93.08
2019-01-18T02:01:07.462Z,93.46
2019-01-18T02:01:33.609Z,93.65
2019-01-18T02:01:59.727Z,93.08
2019-01-18T02:02:25.847Z,93.56
2019-01-18T02:02:51.996Z,93.18
2019-01-18T02:03:18.114Z,93.46
2019-01-18T02:03:44.234Z,93.46
2019-01-18T02:04:10.352Z,93.37
2019-01-18T02:04:36.469Z,93.37
2019-01-18T02:05:02.588Z,93.46
2019-01-18T02:05:28.740Z,93.46
2019-01-18T02:05:54.858Z,93.27
2019-01-18T02:06:20.979Z,93.56
2019-01-18T02:06:47.097Z,93.37
2019-01-18T02:07:13.217Z,93.37
2019-01-18T02:07:39.366Z,93.08
2019-01-18T02:08:05.486Z,93.56
2019-01-18T02:08:31.604Z,92.61
2019-01-18T02:08:57.721Z,93.46
2019-01-18T02:09:23.841Z,93.37
2019-01-18T02:09:49.961Z,93.65
2019-01-18T02:10:16.078Z,93.18
2019-01-18T02:10:42.200Z,93.18
2019-01-18T02:11:08.318Z,93.56
2019-01-18T02:11:34.435Z,93.46
2019-01-18T02:12:00.557Z,92.8
2019-01-18T02:12:26.676Z,92.99
2019-01-18T02:12:52.823Z,92.9
2019-01-18T02:13:19.003Z,92.9
2019-01-18T02:13:45.125Z,93.37
2019-01-18T02:14:11.243Z,93.56
2019-01-18T02:14:37.394Z,93.46
2019-01-18T02:15:03.514Z,93.46
2019-01-18T02:15:29.632Z,93.46
2019-01-18T02:15:55.750Z,93.56
2019-01-18T02:16:21.870Z,93.37
2019-01-18T02:16:47.988Z,93.27
2019-01-18T02:17:14.108Z,93.08
2019-01-18T02:17:40.289Z,93.65
2019-01-18T02:18:06.406Z,93.08
2019-01-18T02:18:32.524Z,93.27
2019-01-18T02:18:58.677Z,93.08
2019-01-18T02:19:24.793Z,93.18
2019-01-18T02:19:50.913Z,93.56
2019-01-18T02:20:17.033Z,93.56
2019-01-18T02:20:43.155Z,93.56
2019-01-18T02:21:09.271Z,93.46
2019-01-18T02:21:35.390Z,93.46
2019-01-18T02:22:01.511Z,93.46
2019-01-18T02:22:27.629Z,93.56
2019-01-18T02:22:53.749Z,93.65
2019-01-18T02:23:19.869Z,93.08
2019-01-18T02:23:45.982Z,93.56
2019-01-18T02:24:12.113Z,93.08
2019-01-18T02:24:38.222Z,93.08
2019-01-18T02:25:04.333Z,93.18
2019-01-18T02:25:30.486Z,93.27
2019-01-18T02:25:56.588Z,93.46
2019-01-18T02:26:22.719Z,93.37
2019-01-18T02:26:48.827Z,93.27
2019-01-18T02:27:14.928Z,93.37
2019-01-18T02:27:41.066Z,93.37
2019-01-18T02:28:07.195Z,93.46
2019-01-18T02:28:33.302Z,92.9
2019-01-18T02:28:59.432Z,92.8
2019-01-18T02:29:25.564Z,92.9
2019-01-18T02:29:56.487Z,92.9
2019-01-18T02:30:18.786Z,92.9
2019-01-18T02:30:44.926Z,92.8
2019-01-18T02:31:11.056Z,93.37
2019-01-18T02:31:37.156Z,93.46
2019-01-18T02:32:03.273Z,93.37
2019-01-18T02:32:29.437Z,93.18
2019-01-18T02:32:55.541Z,93.27
2019-01-18T02:33:21.644Z,93.27
2019-01-18T02:33:47.774Z,93.65
2019-01-18T02:34:13.876Z,93.56
2019-01-18T02:34:40.031Z,93.56
2019-01-18T02:35:06.136Z,93.56
2019-01-18T02:35:32.261Z,93.37
2019-01-18T02:35:58.393Z,93.37
2019-01-18T02:36:24.521Z,93.27
2019-01-18T02:36:50.658Z,93.18
2019-01-18T02:37:16.765Z,93.08
2019-01-18T02:37:42.868Z,93.08
2019-01-18T02:38:08.991Z,93.18
2019-01-18T02:38:35.122Z,93.27
2019-01-18T02:39:01.257Z,93.08
2019-01-18T02:39:27.362Z,93.27
2019-01-18T02:39:53.491Z,93.65
2019-01-18T02:40:19.633Z,93.18
2019-01-18T02:40:45.739Z,93.18
2019-01-18T02:41:11.848Z,93.27
2019-01-18T02:41:37.958Z,93.18
2019-01-18T02:42:04.844Z,93.37
2019-01-18T02:42:30.194Z,93.37
2019-01-18T02:42:56.325Z,92.8
2019-01-18T02:43:22.426Z,92.9
2019-01-18T02:43:48.532Z,92.9
2019-01-18T02:44:14.664Z,93.08
2019-01-18T02:44:40.797Z,92.42
2019-01-18T02:45:06.927Z,92.42
2019-01-18T02:45:33.081Z,92.52
2019-01-18T02:45:59.183Z,92.8
2019-01-18T02:46:25.360Z,92.8
2019-01-18T02:46:51.471Z,93.08
2019-01-18T02:47:17.569Z,92.23
2019-01-18T02:47:43.680Z,92.52
2019-01-18T02:48:09.799Z,92.61
2019-01-18T02:48:35.939Z,92.71
2019-01-18T02:49:02.041Z,92.8
2019-01-18T02:49:28.181Z,92.8
2019-01-18T02:49:54.281Z,92.8
2019-01-18T02:50:20.391Z,92.04
2019-01-18T02:50:46.496Z,92.04
2019-01-18T02:51:12.595Z,92.14
2019-01-18T02:51:38.730Z,92.04
2019-01-18T02:52:04.832Z,92.8
2019-01-18T02:52:30.981Z,92.61
2019-01-18T02:52:57.077Z,92.61
2019-01-18T02:53:23.215Z,92.23
2019-01-18T02:53:49.341Z,93.08
2019-01-18T02:54:15.447Z,93.08
2019-01-18T02:54:41.550Z,92.61
2019-01-18T02:55:07.660Z,92.61
2019-01-18T02:55:34.805Z,92.61
2019-01-18T02:56:00.973Z,92.52
2019-01-18T02:56:27.102Z,92.71
2019-01-18T02:56:53.236Z,92.33
2019-01-18T02:57:19.335Z,92.9
2019-01-18T02:57:45.472Z,93.08
2019-01-18T02:58:11.551Z,92.9
2019-01-18T02:58:37.654Z,93.08
2019-01-18T02:59:03.789Z,93.46
2019-01-18T02:59:29.888Z,93.18
2019-01-18T02:59:55.993Z,93.27
2019-01-18T03:00:23.111Z,93.56
2019-01-18T03:00:49.248Z,93.46
2019-01-18T03:01:15.351Z,93.65
2019-01-18T03:01:41.454Z,93.65
2019-01-18T03:02:07.554Z,93.61
2019-01-18T03:02:33.660Z,93.84
2019-01-18T03:02:59.782Z,93.75
2019-01-18T03:03:25.915Z,93.84
2019-01-18T03:03:52.019Z,93.61
2019-01-18T03:04:18.124Z,93.84
2019-01-18T03:04:44.230Z,93.65
2019-01-18T03:05:10.339Z,93.27
2019-01-18T03:05:36.531Z,93.56
2019-01-18T03:06:02.666Z,93.27
2019-01-18T03:06:28.763Z,93.27
2019-01-18T03:06:54.863Z,93.46
2019-01-18T03:07:21.022Z,93.46
2019-01-18T03:07:47.125Z,93.27
2019-01-18T03:08:13.263Z,93.46
2019-01-18T03:08:39.368Z,92.8
2019-01-18T03:09:05.474Z,93.08
2019-01-18T03:09:31.604Z,92.61
2019-01-18T03:09:57.712Z,92.9
2019-01-18T03:10:23.842Z,93.46
2019-01-18T03:10:49.935Z,93.56
2019-01-18T03:11:16.041Z,93.56
2019-01-18T03:11:42.146Z,93.37
2019-01-18T03:12:08.252Z,93.56
2019-01-18T03:12:34.360Z,93.32
2019-01-18T03:13:00.467Z,93.46
2019-01-18T03:13:26.564Z,93.13
2019-01-18T03:13:52.679Z,93.23
2019-01-18T03:14:18.812Z,93.13
2019-01-18T03:14:44.911Z,93.13
2019-01-18T03:15:11.059Z,93.18
2019-01-18T03:15:37.160Z,93.27
2019-01-18T03:16:03.295Z,93.04
2019-01-18T03:16:29.436Z,93.32
2019-01-18T03:16:55.575Z,93.04
2019-01-18T03:17:21.672Z,93.42
2019-01-18T03:17:47.805Z,93.42
2019-01-18T03:18:13.904Z,93.04
2019-01-18T03:18:40.013Z,93.32
2019-01-18T03:19:06.151Z,93.42
2019-01-18T03:19:32.246Z,93.61
2019-01-18T03:19:58.353Z,93.46
2019-01-18T03:20:24.482Z,93.46
2019-01-18T03:20:50.619Z,93.61
2019-01-18T03:21:16.746Z,93.61
2019-01-18T03:21:42.847Z,93.89
2019-01-18T03:22:08.946Z,94.37
2019-01-18T03:22:35.087Z,94.18
2019-01-18T03:23:01.190Z,94.18
2019-01-18T03:23:27.290Z,94.08
2019-01-18T03:23:53.427Z,94.18
2019-01-18T03:24:19.558Z,94.08
2019-01-18T03:24:45.692Z,93.89
2019-01-18T03:25:11.825Z,93.99
2019-01-18T03:25:37.955Z,93.7
2019-01-18T03:26:04.056Z,94.27
2019-01-18T03:26:30.161Z,94.27
2019-01-18T03:26:56.269Z,93.89
2019-01-18T03:27:22.370Z,93.8
2019-01-18T03:27:48.497Z,93.7
2019-01-18T03:28:14.629Z,93.89
2019-01-18T03:28:40.790Z,93.7
2019-01-18T03:29:06.890Z,93.7
2019-01-18T03:29:32.998Z,94.18
2019-01-18T03:29:59.098Z,93.51
2019-01-18T03:30:26.771Z,94.27
2019-01-18T03:30:52.961Z,94.18
2019-01-18T03:31:19.094Z,94.27
2019-01-18T03:31:45.306Z,94.18
2019-01-18T03:32:11.487Z,93.8
2019-01-18T03:32:37.674Z,93.7
2019-01-18T03:33:03.781Z,93.7
2019-01-18T03:33:29.879Z,93.8
2019-01-18T03:33:55.982Z,93.8
2019-01-18T03:34:22.097Z,93.51
2019-01-18T03:34:48.225Z,93.61
2019-01-18T03:35:14.331Z,93.61
2019-01-18T03:35:40.429Z,94.08
2019-01-18T03:36:06.548Z,93.89
2019-01-18T03:36:32.650Z,93.99
2019-01-18T03:36:58.753Z,93.99
2019-01-18T03:37:24.855Z,93.99
2019-01-18T03:37:50.956Z,93.8
2019-01-18T03:38:17.054Z,94.37
2019-01-18T03:38:43.193Z,94.18
2019-01-18T03:39:09.296Z,93.8
2019-01-18T03:39:35.401Z,94.37
2019-01-18T03:40:01.530Z,94.27
2019-01-18T03:40:27.632Z,94.27
2019-01-18T03:40:53.735Z,94.27
2019-01-18T03:41:19.876Z,94.27
2019-01-18T03:41:45.997Z,94.93
2019-01-18T03:42:12.103Z,94.56
2019-01-18T03:42:38.216Z,94.65
2019-01-18T03:43:04.344Z,94.74
2019-01-18T03:43:30.451Z,94.93
2019-01-18T03:43:56.554Z,94.84
2019-01-18T03:44:22.657Z,94.46
2019-01-18T03:44:48.759Z,94.56
2019-01-18T03:45:14.859Z,94.46
2019-01-18T03:45:40.985Z,94.46
2019-01-18T03:46:07.088Z,94.84
2019-01-18T03:46:33.250Z,94.84
2019-01-18T03:46:59.376Z,94.84
2019-01-18T03:47:25.505Z,95.12
2019-01-18T03:47:51.607Z,95.12
2019-01-18T03:48:17.710Z,94.84
2019-01-18T03:48:43.813Z,94.74
2019-01-18T03:49:09.950Z,94.74
2019-01-18T03:49:36.053Z,95.03
2019-01-18T03:50:02.188Z,94.27
2019-01-18T03:50:28.312Z,94.46
2019-01-18T03:50:54.418Z,94.74
2019-01-18T03:51:20.523Z,94.74
2019-01-18T03:51:46.628Z,95.12
2019-01-18T03:52:12.734Z,95.12
2019-01-18T03:52:38.826Z,95.03
2019-01-18T03:53:04.940Z,94.74
2019-01-18T03:53:31.072Z,94.84
2019-01-18T03:53:57.196Z,95.03
2019-01-18T03:54:23.303Z,94.65
2019-01-18T03:54:49.411Z,94.93
2019-01-18T03:55:15.515Z,95.31
2019-01-18T03:55:41.639Z,94.93
2019-01-18T03:56:07.747Z,94.84
2019-01-18T03:56:33.880Z,94.84
2019-01-18T03:56:59.988Z,95.03
2019-01-18T03:57:26.144Z,94.84
2019-01-18T03:57:52.278Z,94.84
2019-01-18T03:58:18.405Z,94.46
2019-01-18T03:58:44.510Z,94.37
2019-01-18T03:59:10.617Z,94.18
2019-01-18T03:59:36.713Z,94.46
2019-01-18T04:00:02.823Z,94.56
2019-01-18T04:00:30.910Z,94.37
2019-01-18T04:00:57.008Z,94.37
2019-01-18T04:01:23.132Z,94.84
2019-01-18T04:01:49.239Z,95.12
2019-01-18T04:02:15.341Z,95.12
2019-01-18T04:02:41.479Z,95.12
2019-01-18T04:03:07.615Z,95.03
2019-01-18T04:03:33.718Z,94.74
2019-01-18T04:03:59.879Z,94.93
2019-01-18T04:04:25.989Z,94.89
2019-01-18T04:04:52.115Z,94.93
2019-01-18T04:05:18.215Z,94.93
2019-01-18T04:05:44.319Z,95.31
2019-01-18T04:06:10.426Z,94.93
2019-01-18T04:06:36.528Z,94.93
2019-01-18T04:07:02.663Z,95.31
2019-01-18T04:07:28.762Z,95.12
2019-01-18T04:07:54.867Z,95.03
2019-01-18T04:08:21.001Z,95.07
2019-01-18T04:08:47.131Z,94.93
2019-01-18T04:09:13.261Z,95.6
2019-01-18T04:09:39.386Z,95.69
2019-01-18T04:10:05.493Z,95.5
2019-01-18T04:10:31.603Z,95.69
2019-01-18T04:10:57.737Z,95.6
2019-01-18T04:11:23.840Z,95.98
2019-01-18T04:11:49.966Z,95.98
2019-01-18T04:12:16.072Z,96.17
2019-01-18T04:12:42.177Z,95.17
2019-01-18T04:13:08.286Z,95.69
2019-01-18T04:13:34.394Z,95.55
2019-01-18T04:14:00.519Z,95.6
2019-01-18T04:14:26.656Z,95.55
2019-01-18T04:14:52.759Z,95.93
2019-01-18T04:15:18.858Z,95.64
2019-01-18T04:15:44.981Z,95.79
2019-01-18T04:16:11.105Z,96.02
2019-01-18T04:16:37.245Z,95.88
2019-01-18T04:17:03.398Z,96.02
2019-01-18T04:17:29.497Z,96.12
2019-01-18T04:17:55.608Z,95.83
2019-01-18T04:18:21.708Z,95.88
2019-01-18T04:18:47.813Z,96.07
2019-01-18T04:19:13.918Z,96.07
2019-01-18T04:19:40.047Z,96.12
2019-01-18T04:20:06.154Z,95.98
2019-01-18T04:20:32.252Z,95.79
2019-01-18T04:20:58.384Z,96.02
2019-01-18T04:21:24.516Z,95.74
2019-01-18T04:21:50.627Z,95.83
2019-01-18T04:22:16.724Z,96.02
2019-01-18T04:22:42.826Z,96.02
2019-01-18T04:23:08.960Z,95.55
2019-01-18T04:23:35.061Z,95.93
2019-01-18T04:24:01.165Z,95.74
2019-01-18T04:24:27.301Z,96.4
2019-01-18T04:24:53.403Z,96.59
2019-01-18T04:25:19.510Z,96.4
2019-01-18T04:25:45.610Z,96.4
2019-01-18T04:26:11.709Z,96.4
2019-01-18T04:26:37.811Z,96.21
2019-01-18T04:27:03.919Z,96.21
2019-01-18T04:27:30.016Z,96.59
2019-01-18T04:27:56.142Z,96.02
2019-01-18T04:28:22.242Z,96.21
2019-01-18T04:28:48.378Z,96.21
2019-01-18T04:29:14.512Z,96.4
2019-01-18T04:29:40.618Z,96.4
2019-01-18T04:30:06.744Z,95.64
2019-01-18T04:30:33.916Z,96.02
2019-01-18T04:31:00.014Z,96.02
2019-01-18T04:31:26.119Z,96.4
2019-01-18T04:31:52.227Z,96.21
2019-01-18T04:32:18.331Z,96.31
2019-01-18T04:32:44.436Z,96.31
2019-01-18T04:33:10.561Z,96.12
2019-01-18T04:33:36.667Z,96.21
2019-01-18T04:34:02.767Z,96.4
2019-01-18T04:34:28.871Z,96.21
2019-01-18T04:34:55.000Z,96.21
2019-01-18T04:35:21.166Z,96.5
2019-01-18T04:35:47.296Z,96.5
2019-01-18T04:36:13.399Z,96.5
2019-01-18T04:36:39.500Z,96.21
2019-01-18T04:37:05.609Z,95.83
2019-01-18T04:37:31.753Z,96.5
2019-01-18T04:37:57.851Z,96.4
2019-01-18T04:38:23.983Z,96.12
2019-01-18T04:38:50.091Z,96.02
2019-01-18T04:39:16.218Z,96.12
2019-01-18T04:39:42.362Z,96.69
2019-01-18T04:40:08.466Z,96.73
2019-01-18T04:40:34.572Z,96.69
2019-01-18T04:41:00.700Z,96.59
2019-01-18T04:41:26.804Z,96.12
2019-01-18T04:41:52.906Z,96.12
2019-01-18T04:42:19.014Z,96.07
2019-01-18T04:42:45.153Z,96.21
2019-01-18T04:43:11.254Z,96.45
2019-01-18T04:43:37.358Z,95.83
2019-01-18T04:44:03.466Z,95.88
2019-01-18T04:44:29.561Z,96.07
2019-01-18T04:44:55.701Z,95.69
2019-01-18T04:45:21.868Z,95.5
2019-01-18T04:45:47.973Z,95.22
2019-01-18T04:46:14.079Z,95.79
2019-01-18T04:46:40.176Z,95.69
2019-01-18T04:47:06.314Z,95.45
2019-01-18T04:47:32.419Z,94.89
2019-01-18T04:47:58.515Z,94.93
2019-01-18T04:48:24.621Z,95.12
2019-01-18T04:48:50.754Z,95.26
2019-01-18T04:49:16.855Z,95.12
2019-01-18T04:49:42.959Z,94.89
2019-01-18T04:50:09.064Z,95.26
2019-01-18T04:50:35.192Z,95.12
2019-01-18T04:51:01.286Z,94.7
2019-01-18T04:51:27.441Z,94.89
2019-01-18T04:51:53.571Z,95.07
2019-01-18T04:52:19.682Z,94.7
2019-01-18T04:52:45.814Z,95.07
2019-01-18T04:53:11.916Z,95.07
2019-01-18T04:53:38.021Z,94.7
2019-01-18T04:54:04.118Z,94.51
2019-01-18T04:54:30.232Z,94.6
2019-01-18T04:54:56.365Z,95.07
2019-01-18T04:55:22.497Z,94.98
2019-01-18T04:55:48.605Z,95.07
2019-01-18T04:56:14.761Z,94.98
2019-01-18T04:56:40.946Z,95.07
2019-01-18T04:57:06.994Z,94.89
2019-01-18T04:57:33.115Z,95.07
2019-01-18T04:57:59.248Z,95.26
2019-01-18T04:58:26.601Z,94.89
2019-01-18T04:58:52.444Z,95.26
2019-01-18T04:59:18.575Z,94.89
2019-01-18T04:59:44.711Z,95.26
2019-01-18T05:00:10.848Z,95.07
2019-01-18T05:00:40.738Z,94.51
2019-01-18T05:01:03.071Z,94.89
2019-01-18T05:01:29.198Z,94.32
2019-01-18T05:01:55.305Z,94.32
2019-01-18T05:02:21.413Z,94.32
2019-01-18T05:02:47.513Z,94.23
2019-01-18T05:03:13.662Z,94.32
2019-01-18T05:03:39.756Z,94.51
2019-01-18T05:04:05.924Z,94.32
2019-01-18T05:04:32.091Z,94.51
2019-01-18T05:04:58.156Z,94.51
2019-01-18T05:05:24.259Z,94.51
2019-01-18T05:05:50.394Z,94.13
2019-01-18T05:06:16.524Z,94.51
2019-01-18T05:06:42.652Z,94.32
2019-01-18T05:07:08.782Z,94.32
2019-01-18T05:07:34.892Z,94.7
2019-01-18T05:08:00.991Z,94.42
2019-01-18T05:08:27.096Z,94.42
2019-01-18T05:08:53.235Z,94.51
2019-01-18T05:09:19.335Z,94.79
2019-01-18T05:09:45.638Z,94.79
2019-01-18T05:10:11.678Z,94.89
2019-01-18T05:10:37.789Z,94.51
2019-01-18T05:11:03.894Z,94.7
2019-01-18T05:11:30.051Z,94.7
2019-01-18T05:11:56.155Z,94.79
2019-01-18T05:12:22.262Z,94.89
2019-01-18T05:12:48.368Z,94.89
2019-01-18T05:13:15.274Z,94.79
2019-01-18T05:13:41.362Z,94.79
2019-01-18T05:14:07.519Z,94.51
2019-01-18T05:14:33.624Z,94.13
2019-01-18T05:14:59.756Z,94.13
2019-01-18T05:15:25.888Z,94.42
2019-01-18T05:15:52.037Z,94.89
2019-01-18T05:16:18.135Z,94.42
2019-01-18T05:16:44.246Z,94.51
2019-01-18T05:17:10.376Z,94.51
2019-01-18T05:17:36.481Z,94.42
2019-01-18T05:18:02.584Z,94.32
2019-01-18T05:18:28.709Z,94.42
2019-01-18T05:18:54.847Z,94.32
2019-01-18T05:19:21.007Z,94.23
2019-01-18T05:19:47.142Z,94.42
2019-01-18T05:20:13.221Z,94.51
2019-01-18T05:20:39.323Z,94.51
2019-01-18T05:21:05.487Z,94.7
2019-01-18T05:21:31.590Z,94.79
2019-01-18T05:21:57.691Z,94.79
2019-01-18T05:22:23.799Z,95.07
2019-01-18T05:22:49.956Z,94.7
2019-01-18T05:23:16.110Z,94.7
2019-01-18T05:23:42.215Z,94.79
2019-01-18T05:24:08.348Z,94.89
2019-01-18T05:24:34.456Z,94.7
2019-01-18T05:25:01.558Z,94.7
2019-01-18T05:25:27.711Z,94.79
2019-01-18T05:25:53.806Z,94.7
2019-01-18T05:26:19.913Z,94.51
2019-01-18T05:26:46.015Z,94.98
2019-01-18T05:27:12.162Z,95.07
2019-01-18T05:27:38.269Z,94.79
2019-01-18T05:28:04.406Z,95.07
2019-01-18T05:28:30.553Z,94.7
2019-01-18T05:28:56.649Z,94.79
2019-01-18T05:29:22.754Z,94.51
2019-01-18T05:29:48.879Z,94.23
2019-01-18T05:30:14.991Z,94.32
2019-01-18T05:30:47.269Z,94.51
2019-01-18T05:31:08.209Z,94.32
2019-01-18T05:31:34.343Z,94.42
2019-01-18T05:32:00.447Z,94.79
2019-01-18T05:32:26.598Z,95.07
2019-01-18T05:32:52.714Z,95.26
2019-01-18T05:33:18.812Z,94.98
2019-01-18T05:33:44.919Z,94.89
2019-01-18T05:34:11.028Z,95.45
2019-01-18T05:34:37.135Z,95.07
2019-01-18T05:35:03.254Z,95.55
2019-01-18T05:35:29.388Z,95.26
2019-01-18T05:35:55.496Z,95.45
2019-01-18T05:36:21.605Z,95.83
2019-01-18T05:36:47.712Z,95.83
2019-01-18T05:37:13.843Z,96.02
2019-01-18T05:37:39.954Z,96.21